Main page
METAR-TAF:

METAR-TAF

Airports :

Baia Mare, Romania

Baia Mare Airport

latitude: 47-40N, longitude: 023-35E, elevation: 218 m

Current weather observation

The report was made 42 minutes ago, at 08:30 UTC
Wind 10 kt from the East/Northeast
Temperature 9°C
Humidity 43%
Pressure 1016 hPa
Visibility 10 km or more

METAR: LRBM 260830Z AUTO 07010KT 9999 NCD 09/M03 Q1016

Time: 12:12 (09:12 UTC)

Forecast

The report was made 19 hours and 12 minutes ago, at 14:00 UTC
Forecast valid from 25 at 15 UTC to 25 at 24 UTC
Wind 12 kt from the West/Northwest
Visibility 10 km or more
Scattered clouds at a height of 4000 ft

TAF: LRBM 251400Z 2515/2524 29012KT 9999 SCT040

Weather observations and forecasts of more than 4000 airports (METAR and TAF reports).

The available stations are represented by yellow and red dots on the map.

Hover mouse over dot to see the name of the station.

Then click to see weather observations and forecasts.

To change the map : click on the green buttons with a black cross to zoom in, on the green button with a dash to zoom out, or on the green arrows for adjacent maps.


METAR-TAF: